aviador You're here:

KEQY Decoded Metar

MONROE in NC, USA
Report Time2018-07-22 15:53:00
UTC Time2018-07-22 16:26:16
Flight Rules vfr VFR
WindCalm
Visibility9999 m
Phenomena:N/A
Clouds:N/A
Expected CloudBase > 2,800 ft AGL from Temp-Dew spread
CeilingNone
Temp28°C (ISA +14)
Dew Point21°C (66% RH)
Heat Index30.2°C
QNH1008 hPa
Density Alt2,848 ft
Elevation696 ft
Report Wrong Elevation
Raw Report
METAR KEQY 221553Z AUTO 00000KT 10SM CLR 28/21 A2977 RMK AO2 SLP078
T02830206=

Extra information for KEQY:More info

Metar Taf Metar & Taf Last 4 Metars F.Rules Stats Wind Profile Meteogram Temp Stats Airport Information Weather charts Add Link Nearby VenuesMetar ALERT Operation Metar Decoded Social comments

AIRNAV info for KEQY